Time;durP1;ratioP1;P1;durP2;ratioP2;P2;SDS_P1;SDS_P2;PMS_P1;PMS_P2;Temp;Humidity;BMP_temperature;BMP_pressure;BME280_temperature;BME280_humidity;BME280_pressure;Samples;Min_cycle;Max_cycle;Signal;HPM_P1;HPM_P2
2022/04/22 00:02:17;;;;;;;11.60;5.72;;;;;;;;;;4907966;29;20059;-83
2022/04/22 00:04:43;;;;;;;12.90;6.90;;;;;;;;;;4904445;29;20036;-87
2022/04/22 00:07:09;;;;;;;16.35;6.75;;;;;;;;;;4920134;29;20138;-87
2022/04/22 00:09:36;;;;;;;14.95;7.20;;;;;;;;;;4905764;29;20179;-86
2022/04/22 00:12:02;;;;;;;12.73;6.60;;;;;;;;;;4904209;29;20399;-85
2022/04/22 00:14:28;;;;;;;12.25;7.82;;;;;;;;;;4887921;29;20408;-86
2022/04/22 00:16:54;;;;;;;12.73;7.20;;;;;;;;;;4904597;29;20537;-80
2022/04/22 00:19:20;;;;;;;13.73;6.45;;;;;;;;;;4905708;29;20540;-79
2022/04/22 00:21:47;;;;;;;17.40;7.10;;;;;;;;;;4905883;29;20051;-80
2022/04/22 00:24:14;;;;;;;13.95;7.25;;;;;;;;;;4907867;29;20064;-78
2022/04/22 00:26:40;;;;;;;10.35;6.55;;;;;;;;;;4906882;29;20515;-80
2022/04/22 00:29:10;;;;;;;14.57;7.20;;;;;;;;;;4886563;29;20055;-80
2022/04/22 00:31:36;;;;;;;18.55;6.88;;;;;;;;;;4902400;29;20044;-81
2022/04/22 00:34:02;;;;;;;10.65;6.40;;;;;;;;;;4903609;29;20036;-78
2022/04/22 00:36:29;;;;;;;13.00;7.00;;;;;;;;;;4887064;29;20059;-80
2022/04/22 00:38:55;;;;;;;16.13;6.97;;;;;;;;;;4904424;29;20055;-80
2022/04/22 00:41:21;;;;;;;10.90;6.68;;;;;;;;;;4904735;29;20048;-81
2022/04/22 00:43:52;;;;;;;15.52;6.32;;;;;;;;;;4903089;29;20044;-81
2022/04/22 00:46:18;;;;;;;15.05;6.53;;;;;;;;;;4907189;29;20041;-81
2022/04/22 00:48:44;;;;;;;9.77;6.13;;;;;;;;;;4904449;29;20048;-83
2022/04/22 00:51:11;;;;;;;11.00;6.25;;;;;;;;;;4905959;29;20056;-81
2022/04/22 00:53:37;;;;;;;18.17;6.72;;;;;;;;;;4903977;29;20873;-80
2022/04/22 00:56:04;;;;;;;10.57;6.57;;;;;;;;;;4857596;29;20056;-78
2022/04/22 00:58:31;;;;;;;16.65;6.57;;;;;;;;;;4907051;29;20385;-80
2022/04/22 01:00:57;;;;;;;10.38;6.60;;;;;;;;;;4890633;29;20044;-80
2022/04/22 01:03:23;;;;;;;13.57;6.72;;;;;;;;;;4909579;29;20183;-79
2022/04/22 01:11:23;;;;;;;15.70;6.63;;;;;;;;;;4909127;29;20625;-81
2022/04/22 01:13:49;;;;;;;11.60;6.80;;;;;;;;;;4891144;29;20135;-80
2022/04/22 01:16:16;;;;;;;12.15;6.53;;;;;;;;;;4909955;29;20591;-81
2022/04/22 01:18:42;;;;;;;15.88;6.60;;;;;;;;;;4908122;29;20529;-80
2022/04/22 01:21:08;;;;;;;12.13;6.57;;;;;;;;;;4906453;29;20076;-80
2022/04/22 01:23:36;;;;;;;13.07;6.97;;;;;;;;;;4908554;29;20048;-83
2022/04/22 01:26:02;;;;;;;12.10;7.40;;;;;;;;;;4906073;29;20985;-84
2022/04/22 01:28:28;;;;;;;15.32;7.38;;;;;;;;;;4907443;29;20051;-81
2022/04/22 01:31:00;;;;;;;11.27;6.63;;;;;;;;;;4912913;29;20040;-80
2022/04/22 01:33:26;;;;;;;13.30;6.97;;;;;;;;;;4922252;29;20044;-81
2022/04/22 01:35:52;;;;;;;9.88;6.60;;;;;;;;;;4927647;29;20067;-80
2022/04/22 01:38:18;;;;;;;9.45;6.70;;;;;;;;;;4910406;29;20112;-83
2022/04/22 01:40:44;;;;;;;13.55;6.35;;;;;;;;;;4877216;29;20044;-81
2022/04/22 01:43:10;;;;;;;10.57;6.70;;;;;;;;;;4907345;29;20579;-81
2022/04/22 01:45:37;;;;;;;12.60;6.20;;;;;;;;;;4907019;29;20260;-81
2022/04/22 01:48:03;;;;;;;10.48;6.00;;;;;;;;;;4907319;29;20048;-82
2022/04/22 01:50:29;;;;;;;12.50;6.47;;;;;;;;;;4908492;29;20062;-81
2022/04/22 01:52:55;;;;;;;11.57;6.30;;;;;;;;;;4905015;29;20068;-81
2022/04/22 01:55:22;;;;;;;18.40;6.65;;;;;;;;;;4892156;29;20123;-81
2022/04/22 01:57:48;;;;;;;12.00;6.43;;;;;;;;;;4907555;29;20067;-82
2022/04/22 02:00:14;;;;;;;14.40;5.93;;;;;;;;;;4886503;29;20095;-91
2022/04/22 02:02:41;;;;;;;11.07;6.15;;;;;;;;;;4871103;29;20404;-86
2022/04/22 02:05:07;;;;;;;11.60;5.97;;;;;;;;;;4906638;29;20148;-82
2022/04/22 02:07:33;;;;;;;11.95;5.93;;;;;;;;;;4908878;29;20048;-85
2022/04/22 02:09:59;;;;;;;14.15;6.05;;;;;;;;;;4908296;29;20123;-85
2022/04/22 02:12:25;;;;;;;13.77;6.30;;;;;;;;;;4908188;29;20048;-87
2022/04/22 02:14:51;;;;;;;13.88;5.97;;;;;;;;;;4905574;29;20091;-80
2022/04/22 02:17:18;;;;;;;12.10;6.07;;;;;;;;;;4905297;29;20788;-81
2022/04/22 02:19:45;;;;;;;12.63;6.10;;;;;;;;;;4906572;29;20044;-80
2022/04/22 02:22:11;;;;;;;11.60;5.65;;;;;;;;;;4908455;29;20041;-81
2022/04/22 02:24:37;;;;;;;10.63;6.28;;;;;;;;;;4907391;29;20412;-80
2022/04/22 02:29:49;;;;;;;10.32;5.75;;;;;;;;;;4909573;29;20098;-82
2022/04/22 02:32:15;;;;;;;11.90;6.03;;;;;;;;;;4905830;29;21922;-81
2022/04/22 02:34:41;;;;;;;10.00;6.10;;;;;;;;;;4908882;29;20051;-81
2022/04/22 02:37:07;;;;;;;13.00;6.18;;;;;;;;;;4892092;29;20059;-80
2022/04/22 02:39:33;;;;;;;9.73;6.00;;;;;;;;;;4904213;29;20099;-80
2022/04/22 02:47:29;;;;;;;11.73;5.68;;;;;;;;;;4906215;29;20141;-80
2022/04/22 02:49:55;;;;;;;10.57;6.05;;;;;;;;;;4906621;29;20048;-79
2022/04/22 02:52:21;;;;;;;7.97;5.47;;;;;;;;;;4887172;29;20485;-81
2022/04/22 02:54:47;;;;;;;9.13;5.57;;;;;;;;;;4904925;29;20087;-80
2022/04/22 02:57:15;;;;;;;11.80;6.38;;;;;;;;;;4900461;29;20466;-81
2022/04/22 02:59:43;;;;;;;8.77;5.53;;;;;;;;;;4905997;29;20461;-81
2022/04/22 03:02:09;;;;;;;7.78;5.07;;;;;;;;;;4903342;29;20051;-82
2022/04/22 03:04:35;;;;;;;11.07;6.18;;;;;;;;;;4904485;29;20084;-81
2022/04/22 03:07:01;;;;;;;16.38;5.80;;;;;;;;;;4905055;29;20050;-81
2022/04/22 03:09:27;;;;;;;10.55;5.20;;;;;;;;;;4892748;29;20059;-81
2022/04/22 03:11:53;;;;;;;10.38;5.78;;;;;;;;;;4905858;29;20044;-82
2022/04/22 03:14:19;;;;;;;9.75;5.35;;;;;;;;;;4905702;29;20044;-81
2022/04/22 03:16:46;;;;;;;12.95;5.47;;;;;;;;;;4908236;29;20051;-80
2022/04/22 03:19:12;;;;;;;9.85;5.07;;;;;;;;;;4903565;29;20036;-80
2022/04/22 03:21:38;;;;;;;10.25;5.38;;;;;;;;;;4890553;29;20127;-81
2022/04/22 03:24:04;;;;;;;10.48;5.25;;;;;;;;;;4905731;29;20056;-81
2022/04/22 03:26:30;;;;;;;9.85;5.40;;;;;;;;;;4888355;29;20146;-81
2022/04/22 03:28:59;;;;;;;8.48;5.30;;;;;;;;;;4904903;29;20040;-83
2022/04/22 03:31:25;;;;;;;8.15;5.53;;;;;;;;;;4887372;29;20453;-81
2022/04/22 03:33:52;;;;;;;11.13;5.10;;;;;;;;;;4903421;29;20028;-81
2022/04/22 03:36:18;;;;;;;8.88;5.60;;;;;;;;;;4904366;29;20059;-82
2022/04/22 03:38:44;;;;;;;7.50;4.47;;;;;;;;;;4905981;29;20036;-81
2022/04/22 03:41:10;;;;;;;10.70;5.30;;;;;;;;;;4904167;29;20044;-84
2022/04/22 03:43:37;;;;;;;12.23;5.57;;;;;;;;;;4889643;29;20127;-80
2022/04/22 03:46:03;;;;;;;8.52;5.28;;;;;;;;;;4905054;29;20496;-80
2022/04/22 03:48:29;;;;;;;8.32;4.88;;;;;;;;;;4906828;29;20040;-81
2022/04/22 03:50:55;;;;;;;11.32;5.38;;;;;;;;;;4890245;29;20409;-81
2022/04/22 03:53:21;;;;;;;14.15;5.35;;;;;;;;;;4905357;29;20720;-81
2022/04/22 03:55:48;;;;;;;8.02;5.05;;;;;;;;;;4889893;29;20080;-82
2022/04/22 03:58:16;;;;;;;7.95;4.60;;;;;;;;;;4895548;29;20052;-81
2022/04/22 04:00:50;;;;;;;6.70;4.82;;;;;;;;;;4876021;29;20043;-80
2022/04/22 04:03:20;;;;;;;8.07;4.65;;;;;;;;;;4913450;29;20052;-80
2022/04/22 04:05:49;;;;;;;6.93;4.82;;;;;;;;;;4917214;29;20044;-80
2022/04/22 04:08:16;;;;;;;6.90;4.18;;;;;;;;;;4923394;29;20052;-81
2022/04/22 04:16:12;;;;;;;6.97;4.15;;;;;;;;;;4907385;29;20048;-78
2022/04/22 04:18:39;;;;;;;10.80;4.60;;;;;;;;;;4907199;29;20464;-77
2022/04/22 04:23:51;;;;;;;12.80;4.53;;;;;;;;;;4904244;29;20527;-79
2022/04/22 04:26:17;;;;;;;5.93;3.80;;;;;;;;;;4907272;29;20505;-78
2022/04/22 04:28:44;;;;;;;6.95;4.20;;;;;;;;;;4905969;29;20083;-78
2022/04/22 04:31:13;;;;;;;9.60;3.95;;;;;;;;;;4906224;29;20044;-79
2022/04/22 04:33:40;;;;;;;9.38;4.10;;;;;;;;;;4904644;29;20111;-79
2022/04/22 04:36:09;;;;;;;9.00;3.92;;;;;;;;;;4907304;29;20036;-78
2022/04/22 04:38:35;;;;;;;8.73;3.70;;;;;;;;;;4909443;29;20056;-80
2022/04/22 04:41:01;;;;;;;8.00;3.75;;;;;;;;;;4905683;29;20040;-79
2022/04/22 04:43:28;;;;;;;6.60;3.90;;;;;;;;;;4908303;29;20044;-78
2022/04/22 04:45:54;;;;;;;6.38;3.65;;;;;;;;;;4909554;29;20145;-79
2022/04/22 04:48:21;;;;;;;11.00;4.50;;;;;;;;;;4907957;29;20040;-79
2022/04/22 04:50:49;;;;;;;7.60;4.13;;;;;;;;;;4909169;29;20126;-79
2022/04/22 04:53:23;;;;;;;4.95;3.35;;;;;;;;;;4908390;29;20756;-80
2022/04/22 04:55:53;;;;;;;5.45;3.40;;;;;;;;;;4911546;29;20156;-78
2022/04/22 04:58:22;;;;;;;6.53;3.95;;;;;;;;;;4908331;29;20059;-79
2022/04/22 05:00:48;;;;;;;6.95;3.28;;;;;;;;;;4906533;29;20028;-82
2022/04/22 05:03:15;;;;;;;5.32;3.53;;;;;;;;;;4904833;29;20054;-79
2022/04/22 05:05:41;;;;;;;11.25;3.75;;;;;;;;;;4907760;29;20044;-79
2022/04/22 05:08:08;;;;;;;5.13;3.17;;;;;;;;;;4906978;29;20389;-80
2022/04/22 05:10:34;;;;;;;13.55;3.67;;;;;;;;;;4906879;29;20040;-79
2022/04/22 05:13:01;;;;;;;5.30;3.55;;;;;;;;;;4889118;29;20036;-79
2022/04/22 05:15:27;;;;;;;5.45;3.38;;;;;;;;;;4889058;29;20051;-80
2022/04/22 05:17:54;;;;;;;5.78;3.17;;;;;;;;;;4907327;29;20044;-83
2022/04/22 05:20:21;;;;;;;8.15;3.13;;;;;;;;;;4887993;29;20048;-79
2022/04/22 05:22:48;;;;;;;4.75;2.95;;;;;;;;;;4894702;29;20059;-79
2022/04/22 05:25:15;;;;;;;4.85;2.92;;;;;;;;;;4908541;29;20060;-80
2022/04/22 05:27:44;;;;;;;6.32;3.40;;;;;;;;;;4908463;29;20044;-80
2022/04/22 05:32:56;;;;;;;6.40;3.75;;;;;;;;;;4905423;29;20184;-80
2022/04/22 05:35:23;;;;;;;10.25;3.20;;;;;;;;;;4906435;29;20048;-80
2022/04/22 05:37:51;;;;;;;8.32;3.08;;;;;;;;;;4905311;29;20036;-81
2022/04/22 05:40:18;;;;;;;7.85;3.20;;;;;;;;;;4908261;29;20064;-81
2022/04/22 05:42:45;;;;;;;13.25;3.80;;;;;;;;;;4908691;29;20517;-81
2022/04/22 05:45:12;;;;;;;6.20;2.85;;;;;;;;;;4913359;29;20461;-81
2022/04/22 05:47:39;;;;;;;6.95;3.42;;;;;;;;;;4911040;29;20036;-80
2022/04/22 05:50:06;;;;;;;7.15;2.95;;;;;;;;;;4909196;29;20079;-80
2022/04/22 05:52:33;;;;;;;7.80;3.28;;;;;;;;;;4909857;29;20120;-79
2022/04/22 05:55:02;;;;;;;5.80;2.90;;;;;;;;;;4909042;29;20044;-80
2022/04/22 05:57:31;;;;;;;8.40;3.45;;;;;;;;;;4912053;29;20048;-86
2022/04/22 05:59:57;;;;;;;7.63;3.80;;;;;;;;;;4891544;29;20040;-80
2022/04/22 06:02:23;;;;;;;6.22;2.90;;;;;;;;;;4894884;29;20449;-83
2022/04/22 06:04:49;;;;;;;3.47;2.88;;;;;;;;;;4910999;29;20559;-84
2022/04/22 06:07:15;;;;;;;5.78;3.03;;;;;;;;;;4910628;29;20500;-81
2022/04/22 06:12:26;;;;;;;6.35;3.20;;;;;;;;;;4909868;29;20135;-87
2022/04/22 06:14:53;;;;;;;9.98;3.20;;;;;;;;;;4911892;29;20048;-85
2022/04/22 06:17:19;;;;;;;7.40;3.22;;;;;;;;;;4909647;29;20041;-85
2022/04/22 06:19:45;;;;;;;6.03;2.88;;;;;;;;;;4911118;29;20044;-80
2022/04/22 06:22:11;;;;;;;9.85;3.40;;;;;;;;;;4910718;29;20052;-82
2022/04/22 06:24:37;;;;;;;7.07;3.08;;;;;;;;;;4908753;29;20048;-80
2022/04/22 06:27:03;;;;;;;8.95;3.45;;;;;;;;;;4911577;29;20080;-86
2022/04/22 06:29:30;;;;;;;9.50;3.40;;;;;;;;;;4909723;29;20646;-89
2022/04/22 06:31:56;;;;;;;9.38;3.67;;;;;;;;;;4912098;29;20032;-84
2022/04/22 06:34:23;;;;;;;13.02;3.63;;;;;;;;;;4913998;29;20044;-84
2022/04/22 06:36:49;;;;;;;5.78;3.70;;;;;;;;;;4924745;29;20131;-82
2022/04/22 06:39:16;;;;;;;6.25;3.00;;;;;;;;;;4924344;29;20075;-80
2022/04/22 06:47:12;;;;;;;5.80;3.05;;;;;;;;;;4909497;29;20048;-88
2022/04/22 06:49:38;;;;;;;17.25;3.30;;;;;;;;;;4911553;29;20107;-88
2022/04/22 06:52:06;;;;;;;7.72;3.60;;;;;;;;;;4904498;29;20048;-85
2022/04/22 06:54:33;;;;;;;6.60;3.83;;;;;;;;;;4892462;29;20052;-81
2022/04/22 06:57:00;;;;;;;9.48;3.67;;;;;;;;;;4908759;29;20043;-82
2022/04/22 06:59:26;;;;;;;6.13;3.25;;;;;;;;;;4910239;29;20059;-80
2022/04/22 07:01:53;;;;;;;8.02;3.67;;;;;;;;;;4892634;29;20443;-79
2022/04/22 07:04:19;;;;;;;5.88;3.58;;;;;;;;;;4907925;29;20044;-81
2022/04/22 07:06:45;;;;;;;8.38;3.15;;;;;;;;;;4891756;29;20059;-81
2022/04/22 07:09:12;;;;;;;5.10;3.28;;;;;;;;;;4888839;29;20090;-83
2022/04/22 07:11:40;;;;;;;7.07;3.55;;;;;;;;;;4892485;29;20032;-90
2022/04/22 07:14:07;;;;;;;8.07;4.82;;;;;;;;;;4892177;29;20055;-88
2022/04/22 07:16:33;;;;;;;5.60;3.08;;;;;;;;;;4894958;29;20568;-83
2022/04/22 07:18:59;;;;;;;6.93;3.35;;;;;;;;;;4910163;29;20040;-82
2022/04/22 07:21:26;;;;;;;7.55;3.55;;;;;;;;;;4908044;29;20037;-84
2022/04/22 07:23:53;;;;;;;9.73;3.53;;;;;;;;;;4893493;29;20055;-82
2022/04/22 07:26:21;;;;;;;6.07;3.38;;;;;;;;;;4907138;29;20063;-85
2022/04/22 07:28:56;;;;;;;5.65;3.03;;;;;;;;;;4913165;29;20485;-88
2022/04/22 07:31:22;;;;;;;3.78;2.88;;;;;;;;;;4909984;29;20132;-87
2022/04/22 07:33:53;;;;;;;8.65;4.55;;;;;;;;;;4911146;29;20392;-91
2022/04/22 07:36:20;;;;;;;7.50;3.97;;;;;;;;;;4895312;29;20644;-80
2022/04/22 07:38:46;;;;;;;5.78;3.38;;;;;;;;;;4909014;29;20496;-83
2022/04/22 07:41:12;;;;;;;6.80;3.15;;;;;;;;;;4908583;29;20044;-87
2022/04/22 07:49:15;;;;;;;10.32;3.50;;;;;;;;;;4908432;29;20047;-85
2022/04/22 07:51:42;;;;;;;6.65;3.10;;;;;;;;;;4893207;29;20071;-81
2022/04/22 07:54:08;;;;;;;7.50;2.72;;;;;;;;;;4910053;29;20048;-84
2022/04/22 07:56:34;;;;;;;5.35;3.00;;;;;;;;;;4908668;29;20080;-87
2022/04/22 07:59:00;;;;;;;9.27;3.30;;;;;;;;;;4895024;29;20106;-91
2022/04/22 08:01:27;;;;;;;7.38;3.03;;;;;;;;;;4908259;29;20090;-85
2022/04/22 08:03:55;;;;;;;5.63;3.28;;;;;;;;;;4909858;29;20040;-84
2022/04/22 08:06:21;;;;;;;5.63;2.80;;;;;;;;;;4907996;29;20051;-84
2022/04/22 08:08:48;;;;;;;7.78;3.13;;;;;;;;;;4894114;29;20036;-89
2022/04/22 08:11:14;;;;;;;6.20;3.42;;;;;;;;;;4909911;29;20048;-83
2022/04/22 08:13:41;;;;;;;7.25;2.90;;;;;;;;;;4908574;29;20040;-81
2022/04/22 08:16:07;;;;;;;7.05;3.35;;;;;;;;;;4892168;29;20119;-81
2022/04/22 08:18:33;;;;;;;8.15;3.30;;;;;;;;;;4891743;29;20196;-89
2022/04/22 08:20:59;;;;;;;7.18;3.30;;;;;;;;;;4910208;29;20127;-85
2022/04/22 08:23:26;;;;;;;5.90;3.03;;;;;;;;;;4890624;29;20501;-82
2022/04/22 08:25:52;;;;;;;6.90;3.17;;;;;;;;;;4909109;29;20052;-84
2022/04/22 08:28:21;;;;;;;8.13;2.67;;;;;;;;;;4905915;29;20083;-88
2022/04/22 08:30:47;;;;;;;6.40;2.95;;;;;;;;;;4907368;29;20160;-87
2022/04/22 08:33:13;;;;;;;6.43;2.83;;;;;;;;;;4886946;29;20168;-82
2022/04/22 08:35:39;;;;;;;4.30;2.78;;;;;;;;;;4890697;29;20044;-83
2022/04/22 08:38:07;;;;;;;5.40;3.20;;;;;;;;;;4907548;29;20071;-83
2022/04/22 08:40:36;;;;;;;6.95;3.40;;;;;;;;;;4889589;29;20055;-87
2022/04/22 08:43:03;;;;;;;9.13;2.88;;;;;;;;;;4908636;29;20072;-86
2022/04/22 08:45:30;;;;;;;4.97;3.17;;;;;;;;;;4905819;29;20054;-81
2022/04/22 08:50:45;;;;;;;6.20;3.30;;;;;;;;;;4892375;29;20151;-81
2022/04/22 08:53:14;;;;;;;9.57;3.20;;;;;;;;;;4908637;29;20580;-87
2022/04/22 08:55:43;;;;;;;5.95;3.45;;;;;;;;;;4909355;29;20040;-89
2022/04/22 08:58:10;;;;;;;6.35;3.38;;;;;;;;;;4874476;29;20135;-80
2022/04/22 09:00:40;;;;;;;9.23;2.90;;;;;;;;;;4909550;29;20044;-84
2022/04/22 09:03:09;;;;;;;6.38;3.20;;;;;;;;;;4905652;29;20517;-85
2022/04/22 09:05:35;;;;;;;6.30;3.42;;;;;;;;;;4901247;29;20152;-83
2022/04/22 09:08:02;;;;;;;6.38;3.20;;;;;;;;;;4916658;29;20071;-80
2022/04/22 09:10:28;;;;;;;5.70;3.08;;;;;;;;;;4918710;29;20043;-81
2022/04/22 09:12:55;;;;;;;6.10;2.88;;;;;;;;;;4909758;29;20040;-81
2022/04/22 09:15:34;;;;;;;4.10;3.10;;;;;;;;;;4891454;29;20052;-81
2022/04/22 09:18:09;;;;;;;6.22;2.63;;;;;;;;;;4912845;29;20044;-81
2022/04/22 09:20:35;;;;;;;7.80;2.80;;;;;;;;;;4877752;29;20842;-80
2022/04/22 09:23:05;;;;;;;10.15;3.15;;;;;;;;;;4912874;29;20064;-81
2022/04/22 09:25:32;;;;;;;6.82;3.00;;;;;;;;;;4911893;29;20095;-81
2022/04/22 09:28:07;;;;;;;12.77;3.25;;;;;;;;;;4911850;29;20055;-80
2022/04/22 09:30:33;;;;;;;6.70;3.30;;;;;;;;;;4912802;29;20520;-81
2022/04/22 09:32:59;;;;;;;7.72;3.33;;;;;;;;;;4909178;29;20044;-80
2022/04/22 09:35:27;;;;;;;4.15;2.65;;;;;;;;;;4895389;29;20040;-80
2022/04/22 09:43:25;;;;;;;5.43;3.05;;;;;;;;;;4897536;29;20416;-82
2022/04/22 09:45:56;;;;;;;4.78;2.70;;;;;;;;;;4892122;29;20043;-81
2022/04/22 09:48:22;;;;;;;8.48;3.17;;;;;;;;;;4912645;29;20119;-81
2022/04/22 09:50:57;;;;;;;8.63;3.28;;;;;;;;;;4908798;29;20054;-80
2022/04/22 09:53:33;;;;;;;7.13;2.85;;;;;;;;;;4912325;29;20172;-80
2022/04/22 09:56:09;;;;;;;4.82;3.40;;;;;;;;;;4911458;29;20052;-81
2022/04/22 09:58:36;;;;;;;5.75;2.75;;;;;;;;;;4910346;29;20051;-82
2022/04/22 10:01:06;;;;;;;5.38;2.90;;;;;;;;;;4912363;29;20089;-80
2022/04/22 10:03:33;;;;;;;4.63;3.05;;;;;;;;;;4893087;29;20113;-81
2022/04/22 10:06:01;;;;;;;8.98;2.92;;;;;;;;;;4911762;29;20051;-81
2022/04/22 10:08:28;;;;;;;4.93;3.08;;;;;;;;;;4909361;29;20052;-81
2022/04/22 10:10:55;;;;;;;7.15;3.28;;;;;;;;;;4894708;29;20076;-80
2022/04/22 10:13:22;;;;;;;9.30;3.53;;;;;;;;;;4911409;29;20377;-81
2022/04/22 10:15:49;;;;;;;9.57;3.70;;;;;;;;;;4910585;29;20040;-81
2022/04/22 10:18:16;;;;;;;7.60;3.22;;;;;;;;;;4895271;29;20051;-81
2022/04/22 10:20:43;;;;;;;5.75;3.00;;;;;;;;;;4876062;29;20052;-82
2022/04/22 10:23:09;;;;;;;4.85;3.40;;;;;;;;;;4911076;29;20394;-81
2022/04/22 10:25:36;;;;;;;5.18;3.08;;;;;;;;;;4909599;29;20056;-81
2022/04/22 10:28:05;;;;;;;9.52;3.10;;;;;;;;;;4910608;29;20071;-83
2022/04/22 10:30:41;;;;;;;7.05;3.33;;;;;;;;;;4909614;29;20044;-82
2022/04/22 10:33:08;;;;;;;7.07;3.92;;;;;;;;;;4910968;29;20048;-82
2022/04/22 10:35:46;;;;;;;8.65;3.20;;;;;;;;;;4910141;29;20458;-81
2022/04/22 10:38:31;;;;;;;4.25;3.28;;;;;;;;;;4909130;29;20052;-82
2022/04/22 10:41:00;;;;;;;6.03;3.17;;;;;;;;;;4914035;29;20127;-83
2022/04/22 10:43:27;;;;;;;4.57;3.42;;;;;;;;;;4912019;29;20497;-83
2022/04/22 10:48:40;;;;;;;10.05;3.92;;;;;;;;;;4913263;29;20524;-82
2022/04/22 10:51:15;;;;;;;6.35;3.92;;;;;;;;;;4908691;29;20126;-83
2022/04/22 10:53:53;;;;;;;7.45;4.00;;;;;;;;;;4895653;29;20501;-83
2022/04/22 10:56:26;;;;;;;10.52;3.65;;;;;;;;;;4889421;29;20057;-83
2022/04/22 10:59:11;;;;;;;7.55;4.10;;;;;;;;;;4895362;29;20084;-84
2022/04/22 11:01:43;;;;;;;13.18;4.03;;;;;;;;;;4888793;29;20132;-83
2022/04/22 11:04:31;;;;;;;6.20;3.83;;;;;;;;;;4897060;29;20147;-82
2022/04/22 11:06:57;;;;;;;5.55;3.70;;;;;;;;;;4888675;29;20064;-81
2022/04/22 11:09:30;;;;;;;5.75;3.90;;;;;;;;;;4897454;29;20127;-82
2022/04/22 11:11:57;;;;;;;4.93;3.90;;;;;;;;;;4897801;29;20052;-82
2022/04/22 11:14:27;;;;;;;7.85;3.88;;;;;;;;;;4911721;29;20054;-83
2022/04/22 11:16:55;;;;;;;5.97;3.53;;;;;;;;;;4911976;29;20044;-83
2022/04/22 11:19:22;;;;;;;8.00;3.65;;;;;;;;;;4911163;29;20044;-82
2022/04/22 11:21:52;;;;;;;6.47;3.67;;;;;;;;;;4912365;29;20043;-84
2022/04/22 11:24:29;;;;;;;8.68;4.00;;;;;;;;;;4906663;29;20646;-81
2022/04/22 11:27:08;;;;;;;10.25;4.22;;;;;;;;;;4910442;29;20554;-81
2022/04/22 11:29:35;;;;;;;7.60;3.83;;;;;;;;;;4910506;29;20137;-82
2022/04/22 11:32:21;;;;;;;10.35;4.20;;;;;;;;;;4907462;29;20060;-81
2022/04/22 11:34:47;;;;;;;4.43;3.83;;;;;;;;;;4910125;29;20119;-83
2022/04/22 11:37:20;;;;;;;7.05;4.05;;;;;;;;;;4908777;29;20048;-82
2022/04/22 11:39:49;;;;;;;8.10;4.40;;;;;;;;;;4913294;29;20055;-83
2022/04/22 11:42:17;;;;;;;7.13;3.72;;;;;;;;;;4913655;29;20036;-83
2022/04/22 11:44:44;;;;;;;8.68;4.03;;;;;;;;;;4893962;29;20064;-82
2022/04/22 11:47:10;;;;;;;10.00;4.15;;;;;;;;;;4893596;29;20092;-83
2022/04/22 11:49:38;;;;;;;7.00;3.42;;;;;;;;;;4891907;29;20060;-82
2022/04/22 11:52:05;;;;;;;5.40;4.13;;;;;;;;;;4892918;29;20071;-81
2022/04/22 11:54:31;;;;;;;11.40;3.95;;;;;;;;;;4873182;29;20051;-82
2022/04/22 11:56:57;;;;;;;4.88;3.60;;;;;;;;;;4878362;29;20044;-83
2022/04/22 11:59:24;;;;;;;5.85;4.00;;;;;;;;;;4907057;29;20052;-83
2022/04/22 12:10:27;;;;;;;8.05;4.53;;;;;;;;;;4895888;29;20044;-82
2022/04/22 12:13:08;;;;;;;5.13;4.20;;;;;;;;;;4890015;29;20056;-84
2022/04/22 12:15:49;;;;;;;8.48;4.15;;;;;;;;;;4894115;29;20052;-81
2022/04/22 12:18:28;;;;;;;10.70;4.72;;;;;;;;;;4907830;29;20536;-82
2022/04/22 12:20:55;;;;;;;7.25;4.38;;;;;;;;;;4908227;29;20059;-81
2022/04/22 12:23:21;;;;;;;9.90;4.63;;;;;;;;;;4872592;29;20059;-82
2022/04/22 12:26:09;;;;;;;6.18;4.65;;;;;;;;;;4892460;29;20112;-83
2022/04/22 12:28:36;;;;;;;17.10;4.70;;;;;;;;;;4873463;29;20062;-82
2022/04/22 12:31:03;;;;;;;12.73;4.43;;;;;;;;;;4909117;29;20051;-82
2022/04/22 12:33:42;;;;;;;6.82;4.30;;;;;;;;;;4906128;29;20466;-83
2022/04/22 12:36:10;;;;;;;9.27;4.68;;;;;;;;;;4910194;29;20057;-82
2022/04/22 12:38:55;;;;;;;10.32;4.05;;;;;;;;;;4906973;29;20074;-84
2022/04/22 12:41:23;;;;;;;7.43;4.43;;;;;;;;;;4933143;23;20062;-84
2022/04/22 12:43:50;;;;;;;11.57;4.65;;;;;;;;;;4923537;29;20382;-83
2022/04/22 12:52:09;;;;;;;9.70;4.30;;;;;;;;;;4949260;29;20054;-85
2022/04/22 12:54:35;;;;;;;11.82;4.50;;;;;;;;;;4949234;29;20043;-82
2022/04/22 12:57:01;;;;;;;8.95;4.32;;;;;;;;;;4953305;29;20042;-83
2022/04/22 13:03:11;;;;;;;10.85;4.70;;;;;;;;;;4903769;29;20124;-83
2022/04/22 13:05:37;;;;;;;7.50;4.20;;;;;;;;;;4893439;29;20072;-82
2022/04/22 13:08:10;;;;;;;15.20;4.80;;;;;;;;;;4894922;29;20056;-82
2022/04/22 13:10:38;;;;;;;5.03;4.30;;;;;;;;;;4920122;29;20114;-82
2022/04/22 13:13:04;;;;;;;8.32;4.13;;;;;;;;;;4936972;29;20039;-81
2022/04/22 13:15:32;;;;;;;10.38;4.50;;;;;;;;;;4930577;29;20070;-81
2022/04/22 13:17:58;;;;;;;8.20;4.43;;;;;;;;;;4922017;29;20052;-82
2022/04/22 13:20:24;;;;;;;7.18;4.40;;;;;;;;;;4918497;29;20103;-81
2022/04/22 13:22:51;;;;;;;11.55;4.43;;;;;;;;;;4941505;29;20043;-82
2022/04/22 13:25:21;;;;;;;12.38;4.50;;;;;;;;;;4936982;28;20059;-84
2022/04/22 13:27:47;;;;;;;6.55;4.45;;;;;;;;;;4935397;29;20047;-81
2022/04/22 13:30:15;;;;;;;10.35;4.20;;;;;;;;;;4941344;29;20315;-81
2022/04/22 13:32:41;;;;;;;10.38;4.43;;;;;;;;;;4939413;28;20058;-82
2022/04/22 13:35:10;;;;;;;7.63;4.22;;;;;;;;;;4942026;29;20055;-87
2022/04/22 13:37:36;;;;;;;7.53;4.50;;;;;;;;;;4948131;29;20047;-86
2022/04/22 13:40:03;;;;;;;6.53;4.25;;;;;;;;;;4929117;29;20043;-83
2022/04/22 13:42:29;;;;;;;11.45;4.50;;;;;;;;;;4929527;29;20445;-84
2022/04/22 13:53:32;;;;;;;12.82;4.45;;;;;;;;;;4939843;29;20058;-83
2022/04/22 13:56:05;;;;;;;9.35;4.63;;;;;;;;;;4931931;29;20568;-83
2022/04/22 13:58:32;;;;;;;9.30;4.45;;;;;;;;;;4932243;29;20050;-83
2022/04/22 14:00:59;;;;;;;7.00;4.28;;;;;;;;;;4932377;29;20110;-83
2022/04/22 14:03:25;;;;;;;7.97;5.00;;;;;;;;;;4894174;29;20044;-82
2022/04/22 14:05:51;;;;;;;9.10;4.47;;;;;;;;;;4934622;29;20602;-82
2022/04/22 14:08:18;;;;;;;13.27;4.82;;;;;;;;;;4935549;29;20048;-82
2022/04/22 14:10:44;;;;;;;10.45;4.63;;;;;;;;;;4909229;29;20127;-82
2022/04/22 14:13:13;;;;;;;8.68;4.60;;;;;;;;;;4941751;28;20135;-82
2022/04/22 14:15:39;;;;;;;8.57;4.75;;;;;;;;;;4939634;29;20047;-84
2022/04/22 14:18:05;;;;;;;9.02;4.57;;;;;;;;;;4914045;29;20056;-81
2022/04/22 14:20:32;;;;;;;8.88;4.28;;;;;;;;;;4942466;29;20039;-81
2022/04/22 14:22:58;;;;;;;6.43;4.35;;;;;;;;;;4915001;29;20051;-80
2022/04/22 14:25:24;;;;;;;5.75;4.70;;;;;;;;;;4935521;29;20032;-82
2022/04/22 14:27:50;;;;;;;8.05;4.25;;;;;;;;;;4938648;29;20071;-84
2022/04/22 14:30:16;;;;;;;8.63;4.05;;;;;;;;;;4932171;29;20035;-82
2022/04/22 14:32:42;;;;;;;10.55;4.45;;;;;;;;;;4923997;29;20039;-83
2022/04/22 14:35:09;;;;;;;5.13;4.00;;;;;;;;;;4937266;29;20054;-82
2022/04/22 14:37:35;;;;;;;7.78;4.47;;;;;;;;;;4916021;29;20053;-82
2022/04/22 14:40:01;;;;;;;8.63;4.70;;;;;;;;;;4951319;29;20039;-82
2022/04/22 14:42:28;;;;;;;12.95;4.35;;;;;;;;;;4950627;29;20055;-81
2022/04/22 14:44:54;;;;;;;8.07;4.30;;;;;;;;;;4933276;29;20076;-81
2022/04/22 14:47:21;;;;;;;9.52;4.53;;;;;;;;;;4948883;29;20047;-82
2022/04/22 14:49:47;;;;;;;8.23;4.45;;;;;;;;;;4949885;29;20058;-82
2022/04/22 14:52:14;;;;;;;8.25;4.18;;;;;;;;;;4952303;29;20070;-83
2022/04/22 14:54:40;;;;;;;9.10;4.80;;;;;;;;;;4942751;29;20470;-81
2022/04/22 14:57:06;;;;;;;12.73;4.50;;;;;;;;;;4935473;29;20526;-81
2022/04/22 14:59:34;;;;;;;15.20;4.47;;;;;;;;;;4933317;29;20040;-85
2022/04/22 15:02:04;;;;;;;8.23;4.32;;;;;;;;;;4917513;29;20032;-82
2022/04/22 15:04:31;;;;;;;8.75;4.50;;;;;;;;;;4930229;29;20095;-82
2022/04/22 15:06:57;;;;;;;8.23;4.55;;;;;;;;;;4918839;29;20111;-82
2022/04/22 15:09:23;;;;;;;8.80;4.60;;;;;;;;;;4909831;29;20274;-86
2022/04/22 15:11:49;;;;;;;7.35;3.70;;;;;;;;;;4930691;29;20043;-87
2022/04/22 15:14:16;;;;;;;15.95;4.85;;;;;;;;;;4934425;28;20048;-86
2022/04/22 15:16:43;;;;;;;10.93;5.10;;;;;;;;;;4934673;29;20047;-83
2022/04/22 15:24:38;;;;;;;11.20;5.35;;;;;;;;;;4935348;29;20059;-81
2022/04/22 15:27:05;;;;;;;8.82;4.47;;;;;;;;;;4944339;29;20087;-85
2022/04/22 15:29:32;;;;;;;10.57;4.65;;;;;;;;;;4956753;28;20481;-78
2022/04/22 15:31:59;;;;;;;12.60;5.30;;;;;;;;;;4935271;29;20032;-79
2022/04/22 15:34:26;;;;;;;10.68;5.35;;;;;;;;;;4926054;29;20043;-81
2022/04/22 15:36:52;;;;;;;10.63;6.00;;;;;;;;;;4929028;29;20087;-82
2022/04/22 15:39:20;;;;;;;9.32;5.30;;;;;;;;;;4929019;29;20074;-82
2022/04/22 15:41:46;;;;;;;11.93;5.68;;;;;;;;;;4890301;29;20476;-81
2022/04/22 15:44:12;;;;;;;7.53;5.15;;;;;;;;;;4929594;29;20575;-81
2022/04/22 15:46:40;;;;;;;11.30;5.13;;;;;;;;;;4932970;29;20083;-81
2022/04/22 15:49:06;;;;;;;16.52;5.57;;;;;;;;;;4931691;29;20039;-81
2022/04/22 15:51:32;;;;;;;12.73;5.28;;;;;;;;;;4931472;29;20083;-82
2022/04/22 15:53:58;;;;;;;12.65;5.65;;;;;;;;;;4928181;29;20570;-82
2022/04/22 15:56:27;;;;;;;10.77;5.65;;;;;;;;;;4926273;29;20114;-81
2022/04/22 15:58:53;;;;;;;11.65;5.63;;;;;;;;;;4930415;29;20085;-81
2022/04/22 16:01:20;;;;;;;10.65;5.82;;;;;;;;;;4946571;29;20166;-80
2022/04/22 16:03:50;;;;;;;10.65;5.63;;;;;;;;;;4948020;29;20468;-81